Time;durP1;ratioP1;P1;durP2;ratioP2;P2;SDS_P1;SDS_P2;PMS_P1;PMS_P2;Temp;Humidity;BMP_temperature;BMP_pressure;BME280_temperature;BME280_humidity;BME280_pressure;Samples;Min_cycle;Max_cycle;Signal;HPM_P1;HPM_P2
2022/06/16 00:02:00;;;;;;;8.80;4.30;;;20.20;1.00;;;;;;5022897;28;20205;-85
2022/06/16 00:04:28;;;;;;;5.67;4.47;;;20.10;1.00;;;;;;5041123;28;20644;-85
2022/06/16 00:06:55;;;;;;;5.67;4.10;;;20.10;1.00;;;;;;5040634;28;20554;-85
2022/06/16 00:09:24;;;;;;;7.77;4.40;;;20.20;1.00;;;;;;5040717;28;20173;-85
2022/06/16 00:11:50;;;;;;;7.83;4.00;;;20.00;1.00;;;;;;5044129;28;20653;-85
2022/06/16 00:14:16;;;;;;;7.50;4.10;;;20.00;1.00;;;;;;5060747;28;20181;-84
2022/06/16 00:16:42;;;;;;;6.93;4.57;;;20.00;1.00;;;;;;5062135;28;20177;-85
2022/06/16 00:19:11;;;;;;;10.10;4.27;;;19.90;1.00;;;;;;5059182;28;20196;-86
2022/06/16 00:21:39;;;;;;;7.87;4.70;;;19.90;1.00;;;;;;5075435;28;20192;-84
2022/06/16 00:24:08;;;;;;;7.37;4.40;;;19.90;1.00;;;;;;5075304;28;20174;-85
2022/06/16 00:26:34;;;;;;;7.27;4.53;;;19.80;1.00;;;;;;5044204;28;20185;-83
2022/06/16 00:29:00;;;;;;;7.63;5.00;;;19.80;1.00;;;;;;5044093;28;20239;-90
2022/06/16 00:31:28;;;;;;;6.07;4.40;;;19.70;1.00;;;;;;5045301;28;20173;-88
2022/06/16 00:33:54;;;;;;;10.80;5.10;;;19.80;1.00;;;;;;5040231;28;20170;-92
2022/06/16 00:36:25;;;;;;;8.13;4.43;;;19.80;1.00;;;;;;5041270;28;20664;-91
2022/06/16 00:39:03;;;;;;;8.83;4.73;;;19.80;1.00;;;;;;5040317;28;20173;-92
2022/06/16 00:41:30;;;;;;;7.33;4.50;;;19.80;1.00;;;;;;5040702;28;20172;-93
2022/06/16 00:44:15;;;;;;;7.47;5.10;;;19.70;1.00;;;;;;5068376;28;20157;-87
2022/06/16 00:46:41;;;;;;;7.33;4.47;;;19.70;1.00;;;;;;5058643;28;20177;-86
2022/06/16 00:49:12;;;;;;;8.37;4.83;;;19.70;1.00;;;;;;5062595;28;20188;-86
2022/06/16 00:51:52;;;;;;;9.83;4.90;;;19.60;1.00;;;;;;5058347;28;20209;-87
2022/06/16 00:54:26;;;;;;;8.70;4.90;;;19.60;1.00;;;;;;5049255;28;20176;-91
2022/06/16 00:56:55;;;;;;;5.63;4.50;;;19.60;1.00;;;;;;5057993;28;20172;-90
2022/06/16 00:59:30;;;;;;;5.93;4.30;;;19.50;1.00;;;;;;5039740;28;20173;-90
2022/06/16 01:01:56;;;;;;;8.30;4.57;;;19.40;1.00;;;;;;5023749;28;20181;-92
2022/06/16 01:07:11;;;;;;;7.80;5.47;;;19.30;1.00;;;;;;5064281;28;20160;-87
2022/06/16 01:09:39;;;;;;;7.03;4.57;;;19.40;1.00;;;;;;5044870;28;20206;-85
2022/06/16 01:15:32;;;;;;;6.67;5.03;;;19.30;1.00;;;;;;5074426;28;20223;-84
2022/06/16 01:18:01;;;;;;;9.40;4.73;;;19.20;1.00;;;;;;5057363;28;20192;-84
2022/06/16 01:20:43;;;;;;;9.93;5.53;;;19.20;1.00;;;;;;5048193;28;20190;-90
2022/06/16 01:23:27;;;;;;;7.97;5.20;;;19.10;1.00;;;;;;5069620;28;20157;-88
2022/06/16 01:26:10;;;;;;;8.10;5.07;;;19.20;1.00;;;;;;5059683;28;20196;-86
2022/06/16 01:29:06;;;;;;;8.33;5.30;;;19.30;1.00;;;;;;5061213;28;20189;-93
2022/06/16 01:31:48;;;;;;;9.20;5.23;;;19.20;1.00;;;;;;5059611;28;20207;-92
2022/06/16 01:34:39;;;;;;;7.30;5.47;;;19.30;1.00;;;;;;5060782;28;20187;-90
2022/06/16 01:37:19;;;;;;;7.23;5.33;;;19.10;1.00;;;;;;5042990;28;20214;-87
2022/06/16 01:40:07;;;;;;;7.40;5.00;;;19.20;1.00;;;;;;5058101;28;20184;-85
2022/06/16 01:42:45;;;;;;;8.90;5.13;;;19.10;1.00;;;;;;5060339;28;20624;-87
2022/06/16 01:45:37;;;;;;;8.17;5.23;;;19.00;1.00;;;;;;5040932;28;20185;-86
2022/06/16 01:48:07;;;;;;;8.30;5.53;;;19.00;1.00;;;;;;5039202;28;20173;-84
2022/06/16 01:50:41;;;;;;;8.80;5.77;;;18.80;5.20;;;;;;5035711;28;20640;-84
2022/06/16 01:53:20;;;;;;;10.67;5.50;;;18.90;4.70;;;;;;5036494;28;20173;-85
2022/06/16 01:55:55;;;;;;;10.13;5.93;;;18.90;1.10;;;;;;5036437;28;20303;-85
2022/06/16 01:58:34;;;;;;;7.70;5.00;;;19.00;1.40;;;;;;5036132;28;20195;-85
2022/06/16 02:01:05;;;;;;;10.20;5.53;;;18.90;1.00;;;;;;5036313;28;20203;-85
2022/06/16 02:03:35;;;;;;;9.40;5.60;;;18.90;5.70;;;;;;5037332;28;20176;-86
2022/06/16 02:06:08;;;;;;;10.63;6.30;;;18.90;1.10;;;;;;5035972;28;20177;-85
2022/06/16 02:08:40;;;;;;;10.03;5.87;;;18.80;3.00;;;;;;5036495;28;20173;-85
2022/06/16 02:11:18;;;;;;;9.03;5.90;;;18.80;3.60;;;;;;5035536;28;20187;-85
2022/06/16 02:14:24;;;;;;;8.30;5.13;;;18.80;1.30;;;;;;5035559;28;20169;-84
2022/06/16 02:16:51;;;;;;;9.63;5.87;;;18.70;6.50;;;;;;5052287;28;20281;-84
2022/06/16 02:19:21;;;;;;;9.63;6.30;;;18.60;8.60;;;;;;5035669;28;20173;-85
2022/06/16 02:21:49;;;;;;;9.27;5.43;;;18.50;11.50;;;;;;5053255;28;20173;-85
2022/06/16 02:24:20;;;;;;;9.33;5.93;;;18.50;12.60;;;;;;5035383;28;20177;-84
2022/06/16 02:26:48;;;;;;;7.67;5.40;;;18.40;13.00;;;;;;5035318;28;20190;-84
2022/06/16 02:29:33;;;;;;;7.57;5.90;;;18.30;15.80;;;;;;5053296;28;20233;-84
2022/06/16 02:32:02;;;;;;;10.20;5.93;;;18.30;16.70;;;;;;5035378;28;20184;-84
2022/06/16 02:34:29;;;;;;;10.57;6.33;;;18.20;17.50;;;;;;5052846;28;20200;-85
2022/06/16 02:37:25;;;;;;;9.17;6.10;;;18.10;19.60;;;;;;5035291;28;20745;-86
2022/06/16 02:40:06;;;;;;;7.53;5.70;;;18.10;20.60;;;;;;5035685;28;20202;-85
2022/06/16 02:42:55;;;;;;;12.87;6.60;;;18.00;22.70;;;;;;5036446;28;20180;-86
2022/06/16 02:45:42;;;;;;;7.07;5.53;;;18.10;20.40;;;;;;5038346;28;20212;-89
2022/06/16 02:48:24;;;;;;;8.87;6.40;;;18.10;19.10;;;;;;5045713;28;20180;-91
2022/06/16 02:51:12;;;;;;;9.53;5.57;;;18.10;20.90;;;;;;5048437;28;20181;-87
2022/06/16 02:53:45;;;;;;;6.73;5.63;;;18.10;21.60;;;;;;5051859;28;20625;-90
2022/06/16 02:56:22;;;;;;;9.03;6.10;;;18.10;19.40;;;;;;5045475;28;20212;-88
2022/06/16 02:58:49;;;;;;;9.17;5.60;;;18.00;21.30;;;;;;5049004;28;20267;-87
2022/06/16 03:01:17;;;;;;;11.03;6.43;;;17.90;20.40;;;;;;5048444;28;20274;-87
2022/06/16 03:04:04;;;;;;;10.27;6.50;;;17.90;20.00;;;;;;5051634;28;20209;-92
2022/06/16 03:06:30;;;;;;;8.97;5.93;;;18.00;19.90;;;;;;5046739;28;20553;-88
2022/06/16 03:08:57;;;;;;;10.67;6.27;;;18.00;18.00;;;;;;5040470;28;20165;-93
2022/06/16 03:11:24;;;;;;;7.53;5.70;;;18.00;20.80;;;;;;5059202;28;20231;-92
2022/06/16 03:13:50;;;;;;;8.67;5.70;;;17.90;20.30;;;;;;5040512;28;20222;-92
2022/06/16 03:16:16;;;;;;;8.50;6.40;;;17.90;20.50;;;;;;5040190;28;20196;-90
2022/06/16 03:18:41;;;;;;;8.90;5.73;;;17.80;20.70;;;;;;5057977;28;20252;-92
2022/06/16 03:21:08;;;;;;;9.83;5.97;;;18.00;19.60;;;;;;5040144;28;20659;-87
2022/06/16 03:23:35;;;;;;;10.03;6.20;;;17.80;20.20;;;;;;5057467;28;20184;-86
2022/06/16 03:26:01;;;;;;;8.17;5.80;;;17.80;23.00;;;;;;5058182;28;20222;-89
2022/06/16 03:28:27;;;;;;;11.50;6.33;;;17.70;24.10;;;;;;5026705;28;20165;-87
2022/06/16 03:30:53;;;;;;;9.10;6.00;;;17.70;24.90;;;;;;5042270;28;20188;-86
2022/06/16 03:33:20;;;;;;;8.37;6.30;;;17.70;26.30;;;;;;5040829;28;20184;-87
2022/06/16 03:35:48;;;;;;;10.27;5.93;;;17.70;24.40;;;;;;5052380;28;20337;-87
2022/06/16 03:38:26;;;;;;;8.80;6.13;;;17.80;22.40;;;;;;5047880;28;20176;-85
2022/06/16 03:40:54;;;;;;;8.30;6.33;;;17.70;23.70;;;;;;5041879;28;20185;-86
2022/06/16 03:43:20;;;;;;;10.27;6.17;;;17.60;28.40;;;;;;5042558;28;20602;-86
2022/06/16 03:45:46;;;;;;;10.20;6.80;;;17.50;29.10;;;;;;5041531;28;20234;-85
2022/06/16 03:48:12;;;;;;;7.67;6.30;;;17.60;30.70;;;;;;5041895;28;20633;-84
2022/06/16 03:50:38;;;;;;;12.10;6.97;;;17.60;29.70;;;;;;5042493;28;20670;-84
2022/06/16 03:53:04;;;;;;;8.87;6.87;;;17.50;33.50;;;;;;5066594;28;20153;-83
2022/06/16 03:55:31;;;;;;;9.77;7.10;;;17.50;30.90;;;;;;5056734;28;20280;-85
2022/06/16 03:57:57;;;;;;;10.30;7.47;;;17.50;32.40;;;;;;5053182;28;20637;-85
2022/06/16 04:00:25;;;;;;;8.87;6.50;;;17.50;32.10;;;;;;5060661;28;20168;-85
2022/06/16 04:05:38;;;;;;;8.77;6.83;;;17.50;30.30;;;;;;5059357;28;20242;-86
2022/06/16 04:08:06;;;;;;;12.30;6.90;;;17.50;28.60;;;;;;5039862;28;20183;-82
2022/06/16 04:10:32;;;;;;;10.13;7.07;;;17.50;29.90;;;;;;5040290;28;20600;-84
2022/06/16 04:12:57;;;;;;;10.20;7.13;;;17.40;29.30;;;;;;5038602;28;20173;-84
2022/06/16 04:15:23;;;;;;;9.70;6.93;;;17.40;30.10;;;;;;5040739;28;20204;-84
2022/06/16 04:17:51;;;;;;;8.33;6.50;;;17.30;30.90;;;;;;5040140;28;20177;-87
2022/06/16 04:20:16;;;;;;;11.47;6.83;;;17.30;30.00;;;;;;5039512;28;20640;-86
2022/06/16 04:22:43;;;;;;;13.50;7.20;;;17.20;30.00;;;;;;5039277;28;20172;-84
2022/06/16 04:25:13;;;;;;;14.33;8.90;;;17.20;31.30;;;;;;5039110;28;20175;-85
2022/06/16 04:27:41;;;;;;;11.17;6.70;;;17.20;31.20;;;;;;5042951;28;20169;-83
2022/06/16 04:30:08;;;;;;;13.13;7.50;;;17.30;26.30;;;;;;5044857;28;20209;-83
2022/06/16 04:32:34;;;;;;;10.37;7.00;;;17.30;26.60;;;;;;5043704;28;20599;-85
2022/06/16 04:38:22;;;;;;;12.27;6.63;;;17.30;24.70;;;;;;5058017;28;20169;-83
2022/06/16 04:40:54;;;;;;;14.07;7.87;;;17.30;21.60;;;;;;5063554;28;20169;-83
2022/06/16 04:43:19;;;;;;;11.30;7.60;;;17.30;25.10;;;;;;5043081;28;20242;-83
2022/06/16 04:45:45;;;;;;;9.90;7.27;;;17.20;27.00;;;;;;5039851;28;20176;-83
2022/06/16 04:48:12;;;;;;;10.20;7.67;;;17.30;25.80;;;;;;5049002;28;20173;-86
2022/06/16 04:50:38;;;;;;;13.23;8.03;;;17.30;23.30;;;;;;5062478;28;20177;-88
2022/06/16 04:53:05;;;;;;;10.67;7.43;;;17.30;23.60;;;;;;5079656;28;20177;-83
2022/06/16 04:55:31;;;;;;;14.13;7.57;;;17.20;21.10;;;;;;5060750;28;20201;-87
2022/06/16 04:57:58;;;;;;;12.90;7.20;;;17.20;21.80;;;;;;5077955;28;20232;-84
2022/06/16 05:00:30;;;;;;;12.47;7.37;;;17.30;19.40;;;;;;5070069;28;20165;-84
2022/06/16 05:02:57;;;;;;;10.83;7.17;;;17.30;19.00;;;;;;5044496;28;20201;-84
2022/06/16 05:05:22;;;;;;;11.50;7.60;;;17.40;14.60;;;;;;5050965;28;20173;-92
2022/06/16 05:07:48;;;;;;;11.13;7.37;;;17.50;13.10;;;;;;5055764;28;20200;-83
2022/06/16 05:10:14;;;;;;;12.07;7.60;;;17.50;12.60;;;;;;5076473;28;20173;-89
2022/06/16 05:12:42;;;;;;;14.60;7.73;;;17.70;10.20;;;;;;5059995;28;20211;-86
2022/06/16 05:15:08;;;;;;;8.40;6.93;;;17.80;1.00;;;;;;5076156;28;20189;-84
2022/06/16 05:17:34;;;;;;;14.87;7.40;;;17.90;1.00;;;;;;5060251;28;20221;-88
2022/06/16 05:19:59;;;;;;;10.20;7.03;;;18.00;1.00;;;;;;5060761;28;20196;-84
2022/06/16 05:22:25;;;;;;;11.23;6.80;;;18.00;1.00;;;;;;5078326;28;20169;-86
2022/06/16 05:24:52;;;;;;;9.00;6.97;;;17.70;1.00;;;;;;5059066;28;20236;-84
2022/06/16 05:27:18;;;;;;;10.70;7.23;;;17.60;1.00;;;;;;5062143;28;20164;-87
2022/06/16 05:29:43;;;;;;;10.50;6.40;;;17.60;1.00;;;;;;5061583;28;20176;-91
2022/06/16 05:32:19;;;;;;;12.33;6.93;;;17.60;1.00;;;;;;5053726;28;20258;-85
2022/06/16 05:34:48;;;;;;;10.20;6.50;;;17.70;1.00;;;;;;5052795;28;20259;-85
2022/06/16 05:37:14;;;;;;;10.80;7.20;;;17.80;1.00;;;;;;5054293;28;20201;-84
2022/06/16 05:39:43;;;;;;;10.07;7.40;;;17.90;1.00;;;;;;5051569;28;20226;-83
2022/06/16 05:42:12;;;;;;;13.73;7.27;;;17.90;1.00;;;;;;5051012;28;20648;-84
2022/06/16 05:48:06;;;;;;;17.90;7.50;;;17.80;1.00;;;;;;5059929;28;20165;-96
2022/06/16 05:50:32;;;;;;;17.73;9.27;;;17.90;1.00;;;;;;5041871;28;20180;-90
2022/06/16 05:52:58;;;;;;;8.40;6.90;;;18.10;1.00;;;;;;5041153;28;20169;-95
2022/06/16 05:55:24;;;;;;;13.17;7.47;;;18.00;1.00;;;;;;5040823;28;20628;-84
2022/06/16 05:57:49;;;;;;;12.47;7.50;;;18.10;1.00;;;;;;5056171;28;20177;-92
2022/06/16 06:00:15;;;;;;;11.80;6.67;;;18.20;1.00;;;;;;5036865;28;20184;-87
2022/06/16 06:02:42;;;;;;;9.80;7.03;;;18.30;1.00;;;;;;5036990;28;20181;-86
2022/06/16 06:05:08;;;;;;;9.70;7.13;;;18.40;1.00;;;;;;5021466;28;20173;-87
2022/06/16 06:16:25;;;;;;;13.60;7.23;;;18.50;1.00;;;;;;5035865;28;20283;-89
2022/06/16 06:16:48;;;;;;;9.77;7.00;;;18.90;1.00;;;;;;5055463;28;20708;-89
2022/06/16 06:18:43;;;;;;;10.60;6.77;;;19.00;1.00;;;;;;5044079;28;20660;-93
2022/06/16 06:21:09;;;;;;;15.20;9.43;;;19.30;1.00;;;;;;5071860;28;20169;-91
2022/06/16 06:23:34;;;;;;;12.23;8.10;;;19.50;1.00;;;;;;5050762;28;20199;-89
2022/06/16 06:26:00;;;;;;;17.50;7.90;;;19.40;1.00;;;;;;5040483;28;20173;-88
2022/06/16 06:28:30;;;;;;;11.23;8.67;;;19.40;1.00;;;;;;5039233;28;20173;-89
2022/06/16 06:30:55;;;;;;;11.40;7.37;;;19.40;1.00;;;;;;5037099;28;20248;-88
2022/06/16 06:33:21;;;;;;;11.77;7.57;;;19.50;1.00;;;;;;5038361;28;20169;-88
2022/06/16 06:35:47;;;;;;;11.60;7.10;;;19.70;1.00;;;;;;5036835;28;20212;-87
2022/06/16 06:38:13;;;;;;;10.57;7.90;;;19.70;1.00;;;;;;5041422;28;20238;-87
2022/06/16 06:40:40;;;;;;;12.30;7.53;;;19.60;1.00;;;;;;5049821;28;20243;-87
2022/06/16 06:43:06;;;;;;;11.97;8.47;;;19.70;1.00;;;;;;5056323;28;20183;-88
2022/06/16 06:45:33;;;;;;;10.17;7.23;;;19.70;1.00;;;;;;5044116;28;20176;-90
2022/06/16 06:48:01;;;;;;;11.43;7.40;;;19.90;1.00;;;;;;5039670;28;20577;-88
2022/06/16 06:50:33;;;;;;;12.67;7.97;;;19.90;1.00;;;;;;5035394;28;20177;-84
2022/06/16 06:52:59;;;;;;;12.37;7.97;;;19.90;1.00;;;;;;5034422;28;20196;-85
2022/06/16 06:55:25;;;;;;;15.97;7.67;;;19.90;1.00;;;;;;5035460;28;20625;-86
2022/06/16 06:57:52;;;;;;;13.37;8.60;;;20.00;1.00;;;;;;5035992;28;20199;-87
2022/06/16 07:00:20;;;;;;;15.27;8.30;;;19.90;1.00;;;;;;5056598;28;20173;-85
2022/06/16 07:02:45;;;;;;;14.33;9.33;;;19.80;1.00;;;;;;5037901;28;20169;-86
2022/06/16 07:05:11;;;;;;;18.57;9.20;;;19.70;1.00;;;;;;5036250;28;20334;-84
2022/06/16 07:07:38;;;;;;;15.60;9.13;;;19.70;1.00;;;;;;5054592;28;20655;-87
2022/06/16 07:10:06;;;;;;;16.90;8.73;;;19.90;1.00;;;;;;5037707;28;20536;-89
2022/06/16 07:12:34;;;;;;;18.93;10.70;;;20.00;1.00;;;;;;5036052;28;20181;-91
2022/06/16 07:15:01;;;;;;;15.03;9.97;;;19.90;1.00;;;;;;5054124;28;20223;-88
2022/06/16 07:17:27;;;;;;;14.27;9.97;;;20.00;1.00;;;;;;5053993;28;20177;-89
2022/06/16 07:19:53;;;;;;;13.53;9.60;;;20.10;1.00;;;;;;5037824;28;20209;-87
2022/06/16 07:22:19;;;;;;;11.30;9.13;;;20.20;1.00;;;;;;5036282;28;20169;-91
2022/06/16 07:24:46;;;;;;;18.50;9.37;;;20.20;1.00;;;;;;5037253;28;20182;-89
2022/06/16 07:27:12;;;;;;;18.40;9.03;;;20.20;1.00;;;;;;5036968;28;20201;-88
2022/06/16 07:29:37;;;;;;;19.40;9.70;;;20.30;1.00;;;;;;5037387;28;20255;-89
2022/06/16 07:32:05;;;;;;;12.13;8.07;;;20.30;1.00;;;;;;5037838;28;20179;-89
2022/06/16 07:34:30;;;;;;;11.97;8.03;;;20.40;1.00;;;;;;5037393;28;20611;-90
2022/06/16 07:36:56;;;;;;;14.00;8.10;;;20.40;1.00;;;;;;5036997;28;20214;-90
2022/06/16 07:39:22;;;;;;;12.07;7.70;;;20.60;1.00;;;;;;5036808;28;20171;-90
2022/06/16 07:41:48;;;;;;;11.23;7.90;;;20.60;1.00;;;;;;5036564;28;20197;-89
2022/06/16 07:44:16;;;;;;;13.13;7.83;;;20.30;1.00;;;;;;5035673;28;20174;-87
2022/06/16 07:46:43;;;;;;;13.33;6.93;;;20.10;1.00;;;;;;5036154;28;20263;-89
2022/06/16 07:49:12;;;;;;;13.07;7.23;;;20.10;1.00;;;;;;5055655;28;20166;-88
2022/06/16 07:51:39;;;;;;;13.10;8.50;;;20.10;1.00;;;;;;5057385;28;20586;-88
2022/06/16 07:54:06;;;;;;;11.50;7.80;;;20.30;1.00;;;;;;5039469;28;20259;-90
2022/06/16 07:56:32;;;;;;;10.63;7.17;;;20.40;1.00;;;;;;5039971;28;20212;-88
2022/06/16 07:58:57;;;;;;;11.20;7.73;;;20.60;1.00;;;;;;5062086;28;20162;-91
2022/06/16 08:01:23;;;;;;;13.53;7.13;;;20.70;1.00;;;;;;5047504;28;20209;-88
2022/06/16 08:03:49;;;;;;;7.73;6.37;;;20.80;1.00;;;;;;5047659;28;20555;-87
2022/06/16 08:06:18;;;;;;;8.73;6.13;;;20.50;1.00;;;;;;5042905;28;20179;-90
2022/06/16 08:08:44;;;;;;;12.67;6.03;;;20.50;1.00;;;;;;5039691;28;20171;-90
2022/06/16 08:12:03;;;;;;;11.40;6.60;;;20.70;1.00;;;;;;5038869;28;20284;-89
2022/06/16 08:13:57;;;;;;;8.43;6.27;;;20.70;1.00;;;;;;5056675;28;20175;-90
2022/06/16 08:16:24;;;;;;;9.90;6.73;;;20.90;1.00;;;;;;5039954;28;20209;-88
2022/06/16 08:18:50;;;;;;;13.37;7.13;;;21.00;1.00;;;;;;5039078;28;20178;-89
2022/06/16 08:21:16;;;;;;;15.80;7.70;;;21.00;1.00;;;;;;5060867;28;20263;-89
2022/06/16 08:23:42;;;;;;;10.87;6.47;;;21.10;1.00;;;;;;5044587;28;20533;-89
2022/06/16 08:26:09;;;;;;;13.07;6.87;;;21.30;1.00;;;;;;5058391;28;20198;-89
2022/06/16 08:28:36;;;;;;;12.47;6.33;;;21.20;1.00;;;;;;5040000;28;20181;-85
2022/06/16 08:31:02;;;;;;;9.67;6.47;;;21.00;1.00;;;;;;5057193;28;20178;-86
2022/06/16 08:33:28;;;;;;;12.33;6.90;;;20.90;1.00;;;;;;5040017;28;20175;-90
2022/06/16 08:35:54;;;;;;;11.27;5.87;;;21.00;1.00;;;;;;5061766;28;20648;-87
2022/06/16 08:38:20;;;;;;;8.97;5.60;;;21.10;99.90;;;;;;5057667;28;20646;-89
2022/06/16 08:40:48;;;;;;;9.87;6.20;;;21.20;99.90;;;;;;5057488;28;20239;-90
2022/06/16 08:43:31;;;;;;;14.30;6.27;;;21.20;99.90;;;;;;5056812;28;20569;-87
2022/06/16 08:46:03;;;;;;;13.63;6.20;;;21.40;99.90;;;;;;5040353;28;20177;-86
2022/06/16 08:49:00;;;;;;;9.10;5.20;;;21.40;99.90;;;;;;5040068;28;20166;-86
2022/06/16 08:51:26;;;;;;;8.40;5.40;;;21.30;99.90;;;;;;5038667;28;20181;-86
2022/06/16 08:54:18;;;;;;;12.07;5.90;;;21.40;99.90;;;;;;5041759;28;20170;-89
2022/06/16 08:56:46;;;;;;;9.23;4.57;;;21.50;99.90;;;;;;5049831;28;20233;-85
2022/06/16 08:59:27;;;;;;;13.20;5.70;;;21.30;99.90;;;;;;5057240;28;20178;-86
2022/06/16 09:02:00;;;;;;;7.80;4.97;;;21.40;99.90;;;;;;5058039;28;20232;-85
2022/06/16 09:04:44;;;;;;;10.57;4.63;;;21.50;99.90;;;;;;5038730;28;20178;-86
2022/06/16 09:07:38;;;;;;;5.93;4.47;;;21.70;99.90;;;;;;5056444;28;20178;-85
2022/06/16 09:10:36;;;;;;;10.70;5.60;;;21.90;1.00;;;;;;5020251;28;20186;-84
2022/06/16 09:13:23;;;;;;;11.20;4.80;;;21.80;1.00;;;;;;5039498;28;20274;-89
2022/06/16 09:16:35;;;;;;;7.73;4.20;;;21.80;1.00;;;;;;5048241;28;20212;-86
2022/06/16 09:19:12;;;;;;;10.07;4.00;;;22.00;99.90;;;;;;5020571;28;20210;-87
2022/06/16 09:21:51;;;;;;;9.23;4.10;;;22.10;1.00;;;;;;5040918;28;20207;-87
2022/06/16 09:24:51;;;;;;;10.43;4.53;;;22.20;1.00;;;;;;5045067;28;20153;-88
2022/06/16 09:27:19;;;;;;;9.40;3.93;;;22.40;99.90;;;;;;5046311;28;20180;-88
2022/06/16 09:30:00;;;;;;;8.07;4.67;;;22.50;99.90;;;;;;5049114;28;20185;-91
2022/06/16 09:32:36;;;;;;;8.30;4.43;;;22.30;99.90;;;;;;5051003;28;20214;-90
2022/06/16 09:35:23;;;;;;;6.43;4.20;;;22.30;1.00;;;;;;5071958;28;20192;-85
2022/06/16 09:38:17;;;;;;;8.00;4.10;;;22.10;99.90;;;;;;5054450;28;20180;-88
2022/06/16 09:40:53;;;;;;;9.00;4.20;;;22.10;1.00;;;;;;5045759;28;20190;-86
2022/06/16 09:43:36;;;;;;;11.40;4.57;;;22.20;1.00;;;;;;5065242;28;20257;-88
2022/06/16 09:46:19;;;;;;;6.77;3.90;;;22.20;99.90;;;;;;5061772;28;20169;-86
2022/06/16 09:48:52;;;;;;;7.77;4.13;;;22.10;1.00;;;;;;5049333;28;20156;-85
2022/06/16 09:51:58;;;;;;;5.93;4.20;;;22.10;1.00;;;;;;5072994;28;20175;-83
2022/06/16 09:54:50;;;;;;;8.97;4.30;;;22.20;3.30;;;;;;5057617;28;20164;-83
2022/06/16 09:57:45;;;;;;;9.97;4.00;;;22.50;99.90;;;;;;5057192;28;20187;-86
2022/06/16 10:00:22;;;;;;;10.87;4.60;;;22.40;64.60;;;;;;5016097;28;20203;-86
2022/06/16 10:03:00;;;;;;;7.77;4.37;;;22.50;99.90;;;;;;5042669;28;20188;-87
2022/06/16 10:05:57;;;;;;;7.77;3.70;;;22.50;1.00;;;;;;5039705;28;20179;-86
2022/06/16 10:08:45;;;;;;;9.30;3.53;;;22.50;1.00;;;;;;5037554;28;20250;-87
2022/06/16 10:11:17;;;;;;;4.97;3.50;;;22.60;1.00;;;;;;5037140;28;20176;-89
2022/06/16 10:13:47;;;;;;;6.33;3.83;;;22.60;17.20;;;;;;5039267;28;20264;-87
2022/06/16 10:16:19;;;;;;;6.23;3.83;;;22.70;1.00;;;;;;5037804;28;20258;-85
2022/06/16 10:18:47;;;;;;;6.60;3.77;;;22.60;99.90;;;;;;5037465;28;20176;-84
2022/06/16 10:21:15;;;;;;;8.53;4.03;;;22.80;99.90;;;;;;5055393;28;20176;-87
2022/06/16 10:23:49;;;;;;;6.27;3.77;;;22.80;1.00;;;;;;5037469;28;20169;-85
2022/06/16 10:26:15;;;;;;;8.40;3.70;;;22.70;1.00;;;;;;5055099;28;20169;-88
2022/06/16 10:29:04;;;;;;;7.70;3.50;;;22.90;1.00;;;;;;5037929;28;20176;-86
2022/06/16 10:31:43;;;;;;;5.83;3.17;;;23.00;1.00;;;;;;5029372;28;20197;-86
2022/06/16 10:34:31;;;;;;;6.63;2.87;;;23.00;99.90;;;;;;5039314;28;20207;-87
2022/06/16 10:37:09;;;;;;;6.73;3.30;;;23.00;86.30;;;;;;5037011;28;20981;-87
2022/06/16 10:39:54;;;;;;;4.40;3.10;;;23.10;99.90;;;;;;5036888;28;20180;-86
2022/06/16 10:42:23;;;;;;;5.67;3.37;;;23.10;99.90;;;;;;5038340;28;20182;-87
2022/06/16 10:45:07;;;;;;;11.57;3.80;;;23.10;99.90;;;;;;5022384;28;20174;-87
2022/06/16 10:47:53;;;;;;;5.70;2.87;;;23.30;99.90;;;;;;5035648;28;20182;-87
2022/06/16 10:50:28;;;;;;;7.60;3.33;;;23.30;99.90;;;;;;5034025;28;20174;-86
2022/06/16 10:53:19;;;;;;;6.53;2.97;;;23.40;99.90;;;;;;5033713;28;20625;-85
2022/06/16 10:55:47;;;;;;;5.17;3.03;;;23.50;1.00;;;;;;5035681;28;20666;-87
2022/06/16 10:58:25;;;;;;;5.87;2.93;;;23.60;1.00;;;;;;5035640;28;20175;-87
2022/06/16 11:01:25;;;;;;;4.43;2.63;;;23.60;1.00;;;;;;5037244;28;20269;-87
2022/06/16 11:04:03;;;;;;;7.90;3.03;;;23.50;1.00;;;;;;5037349;28;20185;-86
2022/06/16 11:06:30;;;;;;;7.40;3.10;;;23.60;1.00;;;;;;5032356;28;20181;-87
2022/06/16 11:09:04;;;;;;;6.00;3.10;;;23.60;1.00;;;;;;5036811;28;20614;-87
2022/06/16 11:11:42;;;;;;;10.17;3.10;;;23.70;1.00;;;;;;5036896;28;20202;-87
2022/06/16 11:14:18;;;;;;;5.40;2.80;;;23.90;1.00;;;;;;5035935;28;20189;-88
2022/06/16 11:16:55;;;;;;;7.30;2.93;;;23.90;99.90;;;;;;5035452;28;20210;-88
2022/06/16 11:19:43;;;;;;;4.43;2.73;;;23.90;99.90;;;;;;5019533;28;20182;-88
2022/06/16 11:22:39;;;;;;;6.13;2.60;;;23.90;99.90;;;;;;5057279;28;20656;-89
2022/06/16 11:25:27;;;;;;;5.83;3.23;;;23.90;1.00;;;;;;5039299;28;20182;-90
2022/06/16 11:28:11;;;;;;;7.07;2.80;;;24.20;6.30;;;;;;5032051;28;20200;-87
2022/06/16 11:30:56;;;;;;;4.97;2.70;;;24.50;1.00;;;;;;5045740;28;20184;-90
2022/06/16 11:36:36;;;;;;;5.53;2.53;;;24.90;1.00;;;;;;5068201;28;20218;-86
2022/06/16 11:39:21;;;;;;;4.37;2.40;;;24.80;1.00;;;;;;5062717;28;20161;-87
2022/06/16 11:41:51;;;;;;;4.77;2.43;;;24.70;1.00;;;;;;5043226;28;20181;-90
2022/06/16 11:44:54;;;;;;;4.13;2.30;;;24.60;1.00;;;;;;5026596;28;20212;-91
2022/06/16 11:47:26;;;;;;;6.20;2.43;;;24.40;1.00;;;;;;5036615;28;20192;-90
2022/06/16 11:50:15;;;;;;;6.57;2.60;;;24.30;1.00;;;;;;5036750;28;20268;-90
2022/06/16 11:52:41;;;;;;;11.53;3.13;;;24.50;1.00;;;;;;5041696;28;20223;-90
2022/06/16 11:55:28;;;;;;;9.23;3.00;;;24.70;1.00;;;;;;5048904;28;20204;-90
2022/06/16 11:58:23;;;;;;;5.60;2.40;;;25.00;1.00;;;;;;5075100;28;20183;-90
2022/06/16 12:01:03;;;;;;;5.50;2.87;;;24.90;1.00;;;;;;5054673;28;20210;-88
2022/06/16 12:03:54;;;;;;;7.03;2.80;;;24.90;1.00;;;;;;5045758;28;20196;-91
2022/06/16 12:06:57;;;;;;;6.40;2.40;;;24.90;1.00;;;;;;5044771;28;20176;-89
2022/06/16 12:09:35;;;;;;;5.23;2.50;;;24.60;1.00;;;;;;5039992;28;20267;-90
2022/06/16 12:12:13;;;;;;;3.23;2.03;;;24.50;1.00;;;;;;5050966;28;20195;-90
2022/06/16 12:14:50;;;;;;;6.63;2.40;;;24.50;1.00;;;;;;5041112;28;20219;-92
2022/06/16 12:17:36;;;;;;;4.37;2.20;;;24.60;1.00;;;;;;5037029;28;20159;-88
2022/06/16 12:20:21;;;;;;;5.17;2.43;;;24.90;1.00;;;;;;5041907;28;20177;-85
2022/06/16 12:23:00;;;;;;;39.10;6.83;;;25.10;1.00;;;;;;5042746;28;20171;-85
2022/06/16 12:25:38;;;;;;;11.87;3.40;;;25.40;1.00;;;;;;5042810;28;20200;-85
2022/06/16 12:28:30;;;;;;;3.53;2.27;;;25.40;1.00;;;;;;5034322;28;20161;-89
2022/06/16 12:31:09;;;;;;;6.93;2.50;;;25.10;1.00;;;;;;5064665;28;20192;-90
2022/06/16 12:33:43;;;;;;;5.00;2.57;;;24.80;1.00;;;;;;5050904;28;20177;-89
2022/06/16 12:36:27;;;;;;;4.60;2.37;;;24.90;1.00;;;;;;5046641;28;20219;-91
2022/06/16 12:39:20;;;;;;;5.33;2.53;;;25.00;1.00;;;;;;5029875;28;20181;-86
2022/06/16 12:41:50;;;;;;;6.93;2.50;;;25.30;1.00;;;;;;5042274;28;20181;-90
2022/06/16 12:44:20;;;;;;;5.17;2.73;;;25.20;1.00;;;;;;5042460;28;20180;-87
2022/06/16 12:46:52;;;;;;;6.53;2.63;;;25.30;1.00;;;;;;5041211;28;20177;-91
2022/06/16 12:49:27;;;;;;;6.03;2.23;;;25.50;1.00;;;;;;5037304;28;20169;-90
2022/06/16 12:52:08;;;;;;;5.57;2.50;;;25.70;99.90;;;;;;5020098;28;20216;-89
2022/06/16 12:54:42;;;;;;;4.73;2.13;;;25.30;99.90;;;;;;5023709;28;20174;-86
2022/06/16 12:57:21;;;;;;;5.40;2.30;;;25.40;99.90;;;;;;5037046;28;20247;-90
2022/06/16 13:00:00;;;;;;;7.60;2.47;;;25.50;99.90;;;;;;5064674;28;20189;-90
2022/06/16 13:02:33;;;;;;;4.97;2.33;;;25.80;99.90;;;;;;5062063;28;20161;-87
2022/06/16 13:05:08;;;;;;;6.67;2.30;;;25.60;1.00;;;;;;5078623;28;20165;-91
2022/06/16 13:07:35;;;;;;;3.93;2.60;;;25.60;1.00;;;;;;5057100;28;20263;-89
2022/06/16 13:10:04;;;;;;;7.83;3.47;;;25.50;99.90;;;;;;5039328;28;20246;-87
2022/06/16 13:12:35;;;;;;;13.13;5.53;;;25.50;1.00;;;;;;5039646;28;20181;-89
2022/06/16 13:15:18;;;;;;;4.13;2.70;;;25.40;1.00;;;;;;5038653;28;20176;-90
2022/06/16 13:18:13;;;;;;;5.53;2.80;;;25.50;1.00;;;;;;5037834;28;20181;-88
2022/06/16 13:20:40;;;;;;;6.07;2.77;;;25.70;1.00;;;;;;5028444;28;20537;-87
2022/06/16 13:23:15;;;;;;;6.57;2.70;;;25.80;99.90;;;;;;5046744;28;20164;-88
2022/06/16 13:25:47;;;;;;;4.00;2.40;;;26.10;99.90;;;;;;5060963;28;20175;-86
2022/06/16 13:28:39;;;;;;;4.30;2.93;;;26.30;99.90;;;;;;5056493;28;20248;-86
2022/06/16 13:31:28;;;;;;;9.00;2.80;;;26.60;99.90;;;;;;5052471;28;20211;-87
2022/06/16 13:33:56;;;;;;;5.23;2.40;;;26.40;99.90;;;;;;5051938;28;20204;-87
2022/06/16 13:36:22;;;;;;;3.80;2.70;;;26.60;99.90;;;;;;5051278;28;20209;-87
2022/06/16 13:38:51;;;;;;;4.77;2.50;;;26.90;99.90;;;;;;5050922;28;20241;-92
2022/06/16 13:41:54;;;;;;;5.00;2.60;;;27.20;99.90;;;;;;5043135;28;20242;-91
2022/06/16 13:44:24;;;;;;;5.87;2.50;;;27.20;99.90;;;;;;5043372;28;20703;-90
2022/06/16 13:46:59;;;;;;;5.73;2.87;;;27.00;99.90;;;;;;5045076;28;20176;-92